Time;durP1;ratioP1;P1;durP2;ratioP2;P2;SDS_P1;SDS_P2;PMS_P1;PMS_P2;Temp;Humidity;BMP_temperature;BMP_pressure;BME280_temperature;BME280_humidity;BME280_pressure;Samples;Min_cycle;Max_cycle;Signal;HPM_P1;HPM_P2
2021/08/17 00:00:41;;;;;;;1.20;0.80;;;24.20;61.00;;;;;;4953662;28;20433;-63
2021/08/17 00:03:07;;;;;;;1.17;0.77;;;24.10;60.80;;;;;;4953245;28;20386;-63
2021/08/17 00:05:32;;;;;;;1.70;0.90;;;24.10;60.80;;;;;;4953764;28;20401;-63
2021/08/17 00:07:58;;;;;;;1.40;0.77;;;24.10;60.80;;;;;;4953734;28;20394;-63
2021/08/17 00:10:24;;;;;;;1.30;0.70;;;24.10;60.90;;;;;;4953695;28;20749;-63
2021/08/17 00:12:50;;;;;;;1.60;0.80;;;24.10;61.00;;;;;;4953544;28;20405;-63
2021/08/17 00:15:16;;;;;;;1.70;0.80;;;24.10;60.90;;;;;;4953251;28;20402;-63
2021/08/17 00:17:42;;;;;;;1.27;0.70;;;24.10;60.80;;;;;;4952365;28;20402;-63
2021/08/17 00:20:08;;;;;;;1.40;0.80;;;24.10;60.80;;;;;;4953166;28;20422;-63
2021/08/17 00:22:38;;;;;;;1.27;0.80;;;24.10;61.00;;;;;;4953586;28;20394;-63
2021/08/17 00:25:05;;;;;;;1.27;0.70;;;24.10;61.00;;;;;;4953012;28;20402;-63
2021/08/17 00:27:31;;;;;;;1.88;0.70;;;24.10;60.80;;;;;;4953397;28;20398;-63
2021/08/17 00:29:57;;;;;;;1.30;0.95;;;24.10;61.00;;;;;;4953349;28;20397;-63
2021/08/17 00:32:24;;;;;;;1.15;0.65;;;24.10;60.90;;;;;;4953430;28;20394;-63
2021/08/17 00:34:50;;;;;;;1.63;0.90;;;24.10;60.80;;;;;;4953287;28;20397;-63
2021/08/17 00:37:20;;;;;;;1.57;0.77;;;24.10;60.70;;;;;;4952982;28;20405;-63
2021/08/17 00:39:45;;;;;;;1.90;0.80;;;24.00;60.70;;;;;;4953227;28;20413;-63
2021/08/17 00:42:11;;;;;;;1.20;0.60;;;24.00;60.70;;;;;;4953158;28;20428;-63
2021/08/17 00:44:37;;;;;;;1.17;0.67;;;24.10;60.90;;;;;;4953365;28;20404;-63
2021/08/17 00:47:05;;;;;;;1.27;0.80;;;24.00;60.70;;;;;;4952800;28;20401;-63
2021/08/17 00:49:32;;;;;;;1.40;0.82;;;24.00;60.70;;;;;;4953277;28;20826;-63
2021/08/17 00:52:09;;;;;;;1.38;0.80;;;24.00;60.80;;;;;;4953190;28;20901;-63
2021/08/17 00:54:46;;;;;;;1.40;0.80;;;24.00;60.80;;;;;;4951956;28;20398;-63
2021/08/17 00:57:12;;;;;;;1.33;0.70;;;24.00;60.80;;;;;;4952555;28;20413;-63
2021/08/17 00:59:39;;;;;;;1.60;0.90;;;24.00;60.80;;;;;;4952615;28;20398;-63
2021/08/17 01:02:05;;;;;;;1.35;0.80;;;24.00;60.90;;;;;;4952859;28;20402;-63
2021/08/17 01:04:41;;;;;;;1.25;0.70;;;24.00;60.80;;;;;;4950148;28;20399;-63
2021/08/17 01:07:10;;;;;;;1.27;0.80;;;24.00;60.90;;;;;;4950726;29;20397;-63
2021/08/17 01:09:37;;;;;;;1.65;0.80;;;24.00;60.60;;;;;;4949708;28;20394;-63
2021/08/17 01:12:04;;;;;;;1.58;0.70;;;24.00;60.80;;;;;;4952386;28;20438;-63
2021/08/17 01:14:30;;;;;;;1.60;0.80;;;24.00;61.00;;;;;;4953229;28;20396;-63
2021/08/17 01:16:57;;;;;;;1.80;0.80;;;24.00;60.90;;;;;;4952354;28;20412;-63
2021/08/17 01:19:23;;;;;;;1.20;0.70;;;24.00;60.80;;;;;;4950750;28;20413;-63
2021/08/17 01:21:49;;;;;;;1.30;0.70;;;24.00;60.90;;;;;;4951716;28;20425;-63
2021/08/17 01:24:17;;;;;;;1.45;0.70;;;24.00;60.80;;;;;;4950343;28;20408;-63
2021/08/17 01:26:43;;;;;;;1.83;0.80;;;23.90;60.70;;;;;;4950872;28;20539;-63
2021/08/17 01:29:10;;;;;;;1.60;0.85;;;24.00;60.80;;;;;;4949500;28;20827;-63
2021/08/17 01:31:37;;;;;;;1.27;0.75;;;24.00;60.80;;;;;;4950641;28;20394;-63
2021/08/17 01:34:03;;;;;;;1.42;0.80;;;23.90;61.00;;;;;;4954081;28;20405;-63
2021/08/17 01:36:29;;;;;;;1.60;0.98;;;23.90;60.80;;;;;;4954038;28;20406;-63
2021/08/17 01:38:55;;;;;;;1.52;0.88;;;24.00;60.90;;;;;;4954493;28;20492;-63
2021/08/17 01:41:20;;;;;;;2.00;0.90;;;23.90;60.80;;;;;;4954335;28;20429;-63
2021/08/17 01:43:50;;;;;;;1.70;1.00;;;23.90;60.80;;;;;;4956201;28;20476;-63
2021/08/17 01:46:16;;;;;;;1.35;0.80;;;23.90;61.00;;;;;;4956094;28;20457;-62
2021/08/17 01:48:42;;;;;;;1.77;1.00;;;23.90;60.70;;;;;;4956134;28;20394;-63
2021/08/17 01:51:09;;;;;;;2.00;1.10;;;23.90;60.80;;;;;;4955478;28;20488;-63
2021/08/17 01:53:36;;;;;;;1.45;0.90;;;23.90;60.70;;;;;;4955923;28;20398;-63
2021/08/17 01:56:12;;;;;;;1.80;1.13;;;23.90;60.60;;;;;;4956001;28;20394;-63
2021/08/17 01:58:40;;;;;;;2.47;1.23;;;23.90;60.70;;;;;;4955716;28;20470;-63
2021/08/17 02:01:08;;;;;;;1.80;1.10;;;23.90;60.60;;;;;;4955408;28;20429;-62
2021/08/17 02:03:33;;;;;;;1.70;1.10;;;23.90;60.70;;;;;;4955867;28;20390;-63
2021/08/17 02:06:00;;;;;;;2.30;1.40;;;23.90;60.70;;;;;;4955732;28;20402;-63
2021/08/17 02:08:26;;;;;;;2.00;1.33;;;23.90;60.80;;;;;;4955787;28;20398;-63
2021/08/17 02:10:52;;;;;;;1.80;1.20;;;23.90;60.70;;;;;;4955667;28;20766;-63
2021/08/17 02:13:17;;;;;;;2.33;1.30;;;23.90;60.70;;;;;;4954901;28;20398;-63
2021/08/17 02:15:45;;;;;;;1.80;1.17;;;23.90;60.90;;;;;;4955018;28;20401;-63
2021/08/17 02:18:12;;;;;;;2.05;1.25;;;23.90;60.80;;;;;;4955543;28;20386;-62
2021/08/17 02:20:38;;;;;;;2.00;1.50;;;23.90;61.00;;;;;;4955250;28;20457;-63
2021/08/17 02:23:04;;;;;;;1.80;1.27;;;23.80;60.80;;;;;;4955369;28;20394;-63
2021/08/17 02:25:30;;;;;;;2.30;1.30;;;23.80;60.90;;;;;;4955124;28;20402;-63
2021/08/17 02:27:56;;;;;;;2.33;1.27;;;23.80;60.70;;;;;;4955235;28;20394;-63
2021/08/17 02:30:22;;;;;;;1.57;1.13;;;23.80;60.60;;;;;;4955030;28;20424;-63
2021/08/17 02:32:47;;;;;;;1.75;1.25;;;23.80;60.60;;;;;;4955165;28;20449;-63
2021/08/17 02:35:13;;;;;;;2.33;1.40;;;23.80;60.70;;;;;;4954839;28;20823;-63
2021/08/17 02:37:39;;;;;;;2.75;1.45;;;23.80;60.80;;;;;;4955124;29;20393;-63
2021/08/17 02:40:06;;;;;;;2.70;1.40;;;23.80;60.80;;;;;;4954995;28;20418;-63
2021/08/17 02:42:33;;;;;;;2.60;1.23;;;23.90;61.00;;;;;;4953605;28;20461;-63
2021/08/17 02:44:59;;;;;;;3.13;1.30;;;23.90;61.10;;;;;;4955024;28;20394;-63
2021/08/17 02:47:26;;;;;;;3.45;1.55;;;23.90;61.50;;;;;;4953317;29;20405;-63
2021/08/17 02:49:52;;;;;;;2.47;1.17;;;23.90;60.80;;;;;;4954745;28;20484;-63
2021/08/17 02:52:17;;;;;;;2.47;1.40;;;23.90;60.60;;;;;;4954202;28;20406;-63
2021/08/17 02:54:43;;;;;;;2.28;1.20;;;23.80;60.60;;;;;;4953642;29;20754;-62
2021/08/17 02:57:09;;;;;;;2.33;1.40;;;23.80;61.10;;;;;;4954357;28;20397;-63
2021/08/17 02:59:35;;;;;;;2.08;1.38;;;23.80;60.80;;;;;;4954476;28;20430;-63
2021/08/17 03:02:01;;;;;;;2.23;1.30;;;23.80;60.80;;;;;;4954708;28;20727;-63
2021/08/17 03:04:26;;;;;;;2.25;1.30;;;23.80;60.90;;;;;;4954730;28;20405;-63
2021/08/17 03:06:52;;;;;;;2.90;1.13;;;23.80;60.90;;;;;;4954608;28;20419;-63
2021/08/17 03:09:18;;;;;;;2.10;1.38;;;23.80;60.90;;;;;;4954103;28;20421;-62
2021/08/17 03:11:43;;;;;;;2.60;1.50;;;23.80;60.90;;;;;;4954481;28;20917;-63
2021/08/17 03:14:09;;;;;;;2.53;1.43;;;23.80;61.00;;;;;;4954162;28;20917;-63
2021/08/17 03:16:36;;;;;;;4.32;1.40;;;23.80;61.30;;;;;;4954572;28;20476;-63
2021/08/17 03:19:02;;;;;;;1.90;1.30;;;23.80;61.40;;;;;;4954279;28;20879;-63
2021/08/17 03:21:28;;;;;;;3.92;1.40;;;23.90;61.70;;;;;;4953936;28;20544;-64
2021/08/17 03:23:53;;;;;;;3.10;1.40;;;23.80;62.00;;;;;;4952895;29;20481;-63
2021/08/17 03:26:19;;;;;;;3.50;1.60;;;23.90;62.70;;;;;;4954301;28;20901;-64
2021/08/17 03:28:45;;;;;;;2.43;1.37;;;23.90;62.30;;;;;;4954109;28;20769;-63
2021/08/17 03:31:10;;;;;;;2.83;1.50;;;24.00;62.80;;;;;;4953708;28;20401;-63
2021/08/17 03:33:36;;;;;;;2.97;1.50;;;24.10;63.60;;;;;;4952706;29;20402;-64
2021/08/17 03:36:04;;;;;;;3.10;1.60;;;24.20;64.30;;;;;;4953994;28;20417;-63
2021/08/17 03:38:30;;;;;;;2.60;1.30;;;24.20;63.30;;;;;;4953905;28;20390;-63
2021/08/17 03:40:56;;;;;;;2.90;1.60;;;24.20;63.90;;;;;;4953677;28;20429;-63
2021/08/17 03:43:24;;;;;;;2.40;1.57;;;24.20;64.10;;;;;;4952174;29;20402;-64
2021/08/17 03:45:49;;;;;;;3.65;1.60;;;24.20;63.70;;;;;;4953854;28;20473;-63
2021/08/17 03:48:15;;;;;;;2.35;1.50;;;24.20;63.60;;;;;;4953889;28;20394;-64
2021/08/17 03:50:40;;;;;;;2.17;1.43;;;24.20;63.40;;;;;;4953887;28;20449;-64
2021/08/17 03:53:06;;;;;;;2.40;1.60;;;24.20;63.30;;;;;;4952348;28;20401;-63
2021/08/17 03:55:32;;;;;;;3.00;1.40;;;24.20;63.30;;;;;;4951689;29;20421;-64
2021/08/17 03:57:57;;;;;;;1.92;1.33;;;24.20;63.10;;;;;;4953417;28;20402;-64
2021/08/17 04:00:25;;;;;;;3.10;1.40;;;24.30;63.40;;;;;;4953537;28;20453;-64
2021/08/17 04:02:55;;;;;;;2.03;1.20;;;24.30;63.10;;;;;;4953717;28;20425;-64
2021/08/17 04:05:21;;;;;;;2.10;1.10;;;24.30;63.00;;;;;;4953221;28;20393;-63
2021/08/17 04:07:46;;;;;;;2.40;1.48;;;24.20;62.40;;;;;;4953516;28;20460;-64
2021/08/17 04:10:12;;;;;;;2.70;1.40;;;24.20;62.70;;;;;;4952780;28;20872;-63
2021/08/17 04:12:38;;;;;;;2.83;1.20;;;24.10;62.80;;;;;;4953366;28;20386;-64
2021/08/17 04:15:06;;;;;;;2.30;1.20;;;24.10;62.40;;;;;;4953398;28;20537;-64
2021/08/17 04:17:32;;;;;;;3.17;1.17;;;24.10;62.10;;;;;;4953225;28;20390;-64
2021/08/17 04:19:57;;;;;;;3.80;1.20;;;24.00;61.10;;;;;;4953098;28;20421;-63
2021/08/17 04:22:23;;;;;;;2.97;0.80;;;24.00;61.40;;;;;;4952160;29;20496;-63
2021/08/17 04:24:49;;;;;;;3.47;1.02;;;24.00;60.90;;;;;;4953064;28;20417;-64
2021/08/17 04:27:15;;;;;;;2.87;0.80;;;24.00;60.40;;;;;;4953126;28;20890;-63
2021/08/17 04:29:43;;;;;;;2.35;0.90;;;24.00;60.20;;;;;;4953486;28;20407;-63
2021/08/17 04:32:08;;;;;;;1.97;0.70;;;23.90;60.60;;;;;;4953261;28;20530;-63
2021/08/17 04:34:34;;;;;;;1.42;0.68;;;23.90;59.80;;;;;;4952266;29;20433;-63
2021/08/17 04:37:00;;;;;;;5.15;0.85;;;23.90;59.70;;;;;;4953388;28;20401;-63
2021/08/17 04:39:25;;;;;;;2.67;0.80;;;23.90;59.70;;;;;;4951662;29;20402;-63
2021/08/17 04:41:51;;;;;;;2.13;0.80;;;23.90;59.70;;;;;;4953001;28;20425;-63
2021/08/17 04:44:17;;;;;;;2.22;0.82;;;23.90;59.80;;;;;;4952061;29;20405;-63
2021/08/17 04:46:42;;;;;;;1.60;0.90;;;23.90;59.80;;;;;;4953306;28;20889;-63
2021/08/17 04:49:08;;;;;;;2.63;1.00;;;23.90;59.80;;;;;;4953150;28;20441;-64
2021/08/17 04:51:34;;;;;;;2.37;1.00;;;23.80;59.90;;;;;;4952454;28;20498;-64
2021/08/17 04:54:00;;;;;;;3.80;1.10;;;23.90;59.80;;;;;;4951717;29;20492;-63
2021/08/17 04:56:26;;;;;;;2.47;0.90;;;23.90;59.90;;;;;;4952957;28;20814;-64
2021/08/17 04:58:52;;;;;;;3.08;1.10;;;23.90;60.00;;;;;;4951949;29;20413;-63
2021/08/17 05:01:18;;;;;;;2.70;1.00;;;23.80;59.80;;;;;;4952478;28;20425;-63
2021/08/17 05:03:44;;;;;;;1.50;0.90;;;23.80;59.90;;;;;;4953126;28;20882;-64
2021/08/17 05:06:09;;;;;;;1.40;0.80;;;23.80;59.90;;;;;;4954050;28;20433;-63
2021/08/17 05:08:37;;;;;;;1.90;0.90;;;23.80;60.00;;;;;;4956434;28;20457;-63
2021/08/17 05:11:03;;;;;;;2.00;0.80;;;23.90;60.00;;;;;;4956624;28;20457;-63
2021/08/17 05:13:28;;;;;;;1.75;0.80;;;23.90;60.10;;;;;;4956229;28;20754;-63
2021/08/17 05:15:54;;;;;;;1.53;0.87;;;23.80;60.00;;;;;;4956197;28;20406;-64
2021/08/17 05:18:20;;;;;;;1.25;0.65;;;23.80;60.00;;;;;;4956487;28;20403;-64
2021/08/17 05:20:45;;;;;;;2.03;0.87;;;23.80;60.00;;;;;;4956209;28;20430;-63
2021/08/17 05:23:11;;;;;;;1.58;0.80;;;23.80;60.00;;;;;;4955484;28;20456;-64
2021/08/17 05:25:37;;;;;;;2.63;0.80;;;23.80;60.10;;;;;;4955958;28;20541;-63
2021/08/17 05:28:02;;;;;;;1.30;0.80;;;23.80;60.10;;;;;;4956276;28;20417;-64
2021/08/17 05:30:28;;;;;;;2.17;0.77;;;23.80;60.00;;;;;;4956228;28;20425;-64
2021/08/17 05:32:54;;;;;;;1.80;0.80;;;23.80;60.10;;;;;;4956376;28;20408;-64
2021/08/17 05:35:20;;;;;;;1.67;0.80;;;23.80;60.10;;;;;;4955970;28;20526;-63
2021/08/17 05:37:45;;;;;;;2.25;0.98;;;23.80;60.00;;;;;;4956385;28;20476;-64
2021/08/17 05:40:12;;;;;;;2.20;1.00;;;23.80;60.10;;;;;;4956131;28;20509;-64
2021/08/17 05:42:37;;;;;;;2.80;1.20;;;23.80;60.20;;;;;;4956005;28;20765;-63
2021/08/17 05:45:04;;;;;;;2.97;1.35;;;23.80;60.20;;;;;;4954572;29;20928;-63
2021/08/17 05:47:31;;;;;;;3.75;1.25;;;23.80;60.20;;;;;;4955564;28;20386;-63
2021/08/17 05:49:57;;;;;;;2.30;1.20;;;23.80;60.20;;;;;;4954461;29;20416;-63
2021/08/17 05:52:22;;;;;;;2.60;1.10;;;23.80;60.40;;;;;;4954659;29;20905;-64
2021/08/17 05:54:48;;;;;;;2.93;1.30;;;23.80;60.30;;;;;;4954485;28;20432;-63
2021/08/17 05:57:14;;;;;;;2.75;1.30;;;23.90;60.40;;;;;;4954448;29;20750;-63
2021/08/17 05:59:39;;;;;;;3.08;1.42;;;23.80;60.40;;;;;;4954809;28;20402;-63
2021/08/17 06:02:05;;;;;;;3.37;1.20;;;23.80;60.40;;;;;;4955575;28;20500;-63
2021/08/17 06:04:31;;;;;;;2.67;1.30;;;23.80;60.30;;;;;;4954683;29;20404;-64
2021/08/17 06:06:56;;;;;;;3.30;1.30;;;23.80;60.30;;;;;;4955555;28;20402;-63
2021/08/17 06:09:22;;;;;;;2.95;1.38;;;23.80;60.30;;;;;;4955038;28;20394;-63
2021/08/17 06:11:53;;;;;;;2.60;1.17;;;23.80;60.30;;;;;;4955122;28;20973;-64
2021/08/17 06:14:19;;;;;;;2.95;1.17;;;23.80;60.30;;;;;;4954373;29;20397;-63
2021/08/17 06:16:44;;;;;;;2.73;1.30;;;23.80;60.30;;;;;;4955117;28;20461;-63
2021/08/17 06:19:11;;;;;;;2.67;1.25;;;23.80;60.30;;;;;;4955158;28;20448;-63
2021/08/17 06:21:37;;;;;;;2.72;1.30;;;23.80;60.20;;;;;;4954333;28;20524;-63
2021/08/17 06:24:04;;;;;;;2.50;1.27;;;23.80;60.30;;;;;;4955144;28;20410;-64
2021/08/17 06:26:31;;;;;;;2.17;1.00;;;23.80;60.10;;;;;;4954083;29;20402;-64
2021/08/17 06:28:57;;;;;;;2.00;1.10;;;23.80;60.20;;;;;;4954645;28;20386;-64
2021/08/17 06:31:23;;;;;;;2.67;1.10;;;23.80;60.20;;;;;;4954666;28;20394;-63
2021/08/17 06:33:50;;;;;;;3.37;1.30;;;23.80;60.30;;;;;;4954390;28;20468;-63
2021/08/17 06:36:16;;;;;;;2.85;1.02;;;23.90;60.30;;;;;;4953761;28;20493;-63
2021/08/17 06:38:42;;;;;;;1.83;0.90;;;23.90;60.30;;;;;;4954407;28;20843;-64
2021/08/17 06:41:08;;;;;;;2.33;1.10;;;23.90;60.20;;;;;;4953400;29;20485;-63
2021/08/17 06:43:34;;;;;;;1.92;1.00;;;23.90;60.20;;;;;;4954131;28;20398;-63
2021/08/17 06:46:00;;;;;;;1.87;1.00;;;23.90;60.10;;;;;;4954457;28;20398;-64
2021/08/17 06:48:26;;;;;;;2.17;0.93;;;23.90;60.00;;;;;;4953001;29;20398;-63
2021/08/17 06:50:52;;;;;;;2.35;1.10;;;23.90;60.00;;;;;;4952758;29;20398;-64
2021/08/17 06:53:17;;;;;;;2.70;1.00;;;23.90;60.00;;;;;;4952900;29;20402;-64
2021/08/17 06:55:44;;;;;;;1.58;0.82;;;23.90;60.10;;;;;;4953975;28;20410;-63
2021/08/17 06:58:13;;;;;;;1.65;0.90;;;23.90;60.00;;;;;;4952938;29;20823;-63
2021/08/17 07:00:39;;;;;;;2.00;0.90;;;23.90;60.00;;;;;;4952942;29;20429;-64
2021/08/17 07:03:06;;;;;;;2.53;1.00;;;23.90;59.90;;;;;;4954577;28;20958;-63
2021/08/17 07:05:36;;;;;;;1.70;0.90;;;23.90;59.90;;;;;;4953929;28;20406;-64
2021/08/17 07:08:03;;;;;;;2.28;1.10;;;23.90;59.90;;;;;;4953982;28;20938;-63
2021/08/17 07:10:29;;;;;;;1.73;0.93;;;23.90;59.90;;;;;;4954242;28;20398;-63
2021/08/17 07:12:55;;;;;;;1.83;0.90;;;23.90;59.80;;;;;;4954496;28;20477;-64
2021/08/17 07:15:21;;;;;;;1.60;0.90;;;23.90;59.80;;;;;;4954179;28;20536;-63
2021/08/17 07:17:48;;;;;;;1.67;0.87;;;23.90;59.80;;;;;;4954122;28;20394;-63
2021/08/17 07:20:14;;;;;;;2.37;1.00;;;23.90;60.00;;;;;;4954095;28;20440;-64
2021/08/17 07:22:40;;;;;;;1.80;0.88;;;23.90;59.80;;;;;;4954262;28;20398;-63
2021/08/17 07:25:07;;;;;;;1.50;0.70;;;23.90;59.80;;;;;;4953007;29;20406;-64
2021/08/17 07:27:32;;;;;;;1.58;0.82;;;23.90;59.70;;;;;;4953903;28;20402;-64
2021/08/17 07:29:58;;;;;;;1.40;0.80;;;23.90;59.80;;;;;;4953009;28;20882;-63
2021/08/17 07:32:24;;;;;;;1.50;0.80;;;23.90;59.70;;;;;;4953414;28;20404;-64
2021/08/17 07:34:49;;;;;;;2.50;1.10;;;23.90;59.80;;;;;;4952034;28;20398;-63
2021/08/17 07:37:15;;;;;;;1.52;0.90;;;23.90;59.70;;;;;;4953979;28;20398;-63
2021/08/17 07:39:41;;;;;;;1.50;0.90;;;23.90;59.80;;;;;;4953570;28;20410;-63
2021/08/17 07:42:07;;;;;;;1.42;0.77;;;23.90;59.80;;;;;;4953469;28;20508;-63
2021/08/17 07:44:34;;;;;;;1.45;0.90;;;23.90;59.90;;;;;;4954062;28;20406;-63
2021/08/17 07:47:00;;;;;;;1.73;0.95;;;23.90;59.80;;;;;;4953502;28;20394;-64
2021/08/17 07:49:26;;;;;;;2.38;0.80;;;23.90;59.80;;;;;;4953015;28;20406;-63
2021/08/17 07:51:51;;;;;;;1.98;0.80;;;23.90;59.70;;;;;;4953662;28;20464;-63
2021/08/17 07:54:17;;;;;;;2.03;0.85;;;23.90;59.70;;;;;;4953213;28;20393;-63
2021/08/17 07:56:43;;;;;;;1.37;0.80;;;23.90;59.50;;;;;;4953327;29;20497;-64
2021/08/17 07:59:08;;;;;;;2.00;0.90;;;23.90;59.50;;;;;;4953463;28;20389;-64
2021/08/17 08:01:34;;;;;;;1.90;0.80;;;23.90;59.60;;;;;;4953111;28;20508;-64
2021/08/17 08:04:00;;;;;;;1.53;0.87;;;24.00;59.40;;;;;;4953262;28;20405;-63
2021/08/17 08:06:26;;;;;;;1.20;0.75;;;23.90;59.50;;;;;;4953694;28;20397;-63
2021/08/17 08:08:52;;;;;;;1.75;0.75;;;24.00;60.00;;;;;;4953404;28;20890;-63
2021/08/17 08:11:18;;;;;;;1.25;0.73;;;24.00;59.30;;;;;;4953478;28;20406;-63
2021/08/17 08:13:44;;;;;;;1.55;0.80;;;24.00;59.40;;;;;;4952869;28;20514;-63
2021/08/17 08:16:10;;;;;;;1.70;0.90;;;24.00;59.40;;;;;;4953412;28;20969;-63
2021/08/17 08:18:36;;;;;;;1.80;0.90;;;24.00;59.20;;;;;;4953526;28;20409;-64
2021/08/17 08:21:02;;;;;;;1.80;0.80;;;24.00;59.40;;;;;;4953175;28;20433;-64
2021/08/17 08:23:27;;;;;;;1.80;1.00;;;24.00;59.10;;;;;;4952670;28;20394;-62
2021/08/17 08:25:53;;;;;;;1.40;0.90;;;24.00;59.10;;;;;;4952503;28;20410;-64
2021/08/17 08:28:19;;;;;;;1.50;0.83;;;24.00;58.90;;;;;;4984554;28;20542;-64
2021/08/17 08:30:45;;;;;;;1.50;1.00;;;24.00;59.10;;;;;;4953425;28;20394;-64
2021/08/17 08:33:11;;;;;;;1.70;1.00;;;24.00;58.90;;;;;;4953745;28;20473;-64
2021/08/17 08:35:37;;;;;;;1.20;0.80;;;24.00;59.00;;;;;;4953025;28;20897;-63
2021/08/17 08:38:03;;;;;;;1.40;0.80;;;24.00;59.00;;;;;;4953259;28;20444;-63
2021/08/17 08:40:29;;;;;;;1.98;1.00;;;24.00;59.10;;;;;;4955093;28;20480;-63
2021/08/17 08:42:55;;;;;;;1.38;0.88;;;24.00;58.90;;;;;;4957108;28;20413;-63
2021/08/17 08:45:21;;;;;;;1.38;0.90;;;24.00;59.00;;;;;;4957392;28;20393;-63
2021/08/17 08:47:47;;;;;;;1.40;0.80;;;24.00;59.00;;;;;;4956140;28;20446;-64
2021/08/17 08:50:14;;;;;;;1.52;0.93;;;24.00;58.90;;;;;;4956762;28;20405;-64
2021/08/17 08:52:39;;;;;;;1.40;0.80;;;24.00;59.20;;;;;;4957095;28;20408;-64
2021/08/17 08:55:07;;;;;;;1.40;0.90;;;24.10;59.20;;;;;;4957061;28;20393;-64
2021/08/17 08:57:33;;;;;;;1.50;0.82;;;24.10;59.20;;;;;;4956495;28;20477;-64
2021/08/17 08:59:59;;;;;;;1.63;1.10;;;24.10;59.20;;;;;;4956831;28;20484;-63
2021/08/17 09:02:30;;;;;;;1.40;0.90;;;24.10;59.10;;;;;;4956643;28;20405;-63
2021/08/17 09:04:59;;;;;;;1.60;0.90;;;24.10;59.30;;;;;;4956892;28;20408;-63
2021/08/17 09:07:35;;;;;;;1.80;0.90;;;24.10;59.20;;;;;;4956832;28;20545;-64
2021/08/17 09:10:19;;;;;;;1.50;0.75;;;24.00;59.10;;;;;;4956847;28;20405;-64
2021/08/17 09:12:48;;;;;;;1.65;0.98;;;24.10;59.00;;;;;;4956884;28;20492;-63
2021/08/17 09:15:27;;;;;;;1.55;0.90;;;24.00;59.10;;;;;;4956732;28;20758;-64
2021/08/17 09:18:09;;;;;;;1.83;0.98;;;24.00;59.20;;;;;;4956390;28;20398;-64
2021/08/17 09:20:45;;;;;;;1.25;0.80;;;24.00;59.10;;;;;;4956638;28;20453;-64
2021/08/17 09:23:28;;;;;;;1.30;0.80;;;24.10;59.20;;;;;;4956732;28;20402;-64
2021/08/17 09:25:56;;;;;;;1.70;1.00;;;24.10;59.20;;;;;;4956254;28;20448;-64
2021/08/17 09:28:25;;;;;;;1.50;0.95;;;24.10;59.10;;;;;;4956536;28;20394;-64
2021/08/17 09:30:51;;;;;;;1.60;1.00;;;24.10;59.10;;;;;;4956493;28;20394;-64
2021/08/17 09:33:16;;;;;;;1.88;1.00;;;24.10;58.90;;;;;;4956460;28;20394;-63
2021/08/17 09:35:43;;;;;;;1.33;0.77;;;24.00;58.90;;;;;;4955851;28;20426;-63
2021/08/17 09:38:11;;;;;;;1.30;0.88;;;24.10;58.80;;;;;;4956393;28;20746;-64
2021/08/17 09:40:39;;;;;;;1.30;0.85;;;24.10;58.90;;;;;;4956216;28;20426;-64
2021/08/17 09:43:20;;;;;;;1.90;1.00;;;24.10;58.90;;;;;;4956246;28;20402;-64
2021/08/17 09:45:46;;;;;;;1.80;1.05;;;24.10;59.00;;;;;;4955675;29;20529;-64
2021/08/17 09:48:14;;;;;;;1.55;0.90;;;24.10;58.90;;;;;;4956143;28;20964;-64
2021/08/17 09:50:42;;;;;;;1.80;0.80;;;24.10;58.80;;;;;;4956201;28;20882;-64
2021/08/17 09:53:13;;;;;;;1.77;0.90;;;24.10;58.60;;;;;;4955259;28;20580;-64
2021/08/17 09:55:47;;;;;;;1.30;0.80;;;24.10;57.90;;;;;;4955694;28;20410;-64
2021/08/17 09:58:24;;;;;;;1.67;0.88;;;24.10;58.30;;;;;;4956061;28;20433;-63
2021/08/17 10:00:51;;;;;;;1.60;0.90;;;24.10;58.50;;;;;;4955866;28;20429;-63
2021/08/17 10:03:18;;;;;;;2.10;1.10;;;24.10;58.50;;;;;;4955568;28;21052;-63
2021/08/17 10:05:44;;;;;;;1.75;0.98;;;24.10;58.30;;;;;;4954742;28;20402;-64
2021/08/17 10:08:12;;;;;;;1.70;0.98;;;24.10;58.30;;;;;;4955720;28;20484;-64
2021/08/17 10:10:39;;;;;;;1.50;1.00;;;24.10;57.60;;;;;;4955557;28;20394;-64
2021/08/17 10:13:08;;;;;;;1.40;1.02;;;24.10;58.30;;;;;;4955712;28;20401;-64
2021/08/17 10:15:34;;;;;;;1.80;0.90;;;24.10;58.30;;;;;;4955217;28;20921;-64
2021/08/17 10:18:01;;;;;;;1.40;0.90;;;24.10;58.40;;;;;;4955400;28;20414;-64
2021/08/17 10:20:27;;;;;;;1.70;1.00;;;24.10;58.30;;;;;;4955516;28;20421;-63
2021/08/17 10:22:53;;;;;;;1.83;1.10;;;24.10;58.40;;;;;;4955407;28;20410;-64
2021/08/17 10:25:19;;;;;;;1.65;1.00;;;24.10;58.20;;;;;;4955480;28;20882;-64
2021/08/17 10:27:45;;;;;;;1.80;1.07;;;24.10;58.40;;;;;;4954852;28;20413;-64
2021/08/17 10:30:37;;;;;;;1.92;1.20;;;24.10;58.40;;;;;;4955431;28;20917;-64
2021/08/17 10:33:02;;;;;;;1.92;1.10;;;24.10;58.30;;;;;;4954876;28;20882;-63
2021/08/17 10:35:32;;;;;;;1.63;1.10;;;24.10;58.50;;;;;;4955298;28;20398;-64
2021/08/17 10:38:07;;;;;;;1.60;1.00;;;24.10;58.30;;;;;;4955247;28;20394;-63
2021/08/17 10:40:51;;;;;;;1.98;1.20;;;24.10;58.40;;;;;;4955184;28;20512;-64
2021/08/17 10:43:38;;;;;;;1.55;1.00;;;24.10;58.40;;;;;;4955174;28;20441;-63
2021/08/17 10:46:06;;;;;;;1.90;0.95;;;24.10;58.00;;;;;;4953988;28;20417;-64
2021/08/17 10:48:44;;;;;;;1.70;1.10;;;24.10;58.20;;;;;;4955104;28;20441;-64
2021/08/17 10:51:31;;;;;;;1.92;1.10;;;24.10;58.20;;;;;;4954962;28;20421;-63
2021/08/17 10:53:59;;;;;;;1.80;1.20;;;24.10;58.20;;;;;;4953482;28;20461;-64
2021/08/17 10:56:33;;;;;;;1.90;1.10;;;24.10;58.20;;;;;;4951590;28;20457;-64
2021/08/17 10:58:59;;;;;;;1.40;1.10;;;24.10;58.30;;;;;;4951623;29;20406;-64
2021/08/17 11:01:30;;;;;;;2.35;1.23;;;24.20;58.10;;;;;;4954208;28;20477;-63
2021/08/17 11:04:19;;;;;;;1.63;1.00;;;24.20;58.30;;;;;;4953958;28;20401;-63
2021/08/17 11:06:56;;;;;;;1.80;1.17;;;24.20;58.30;;;;;;4949084;29;20398;-64
2021/08/17 11:09:30;;;;;;;1.90;1.20;;;24.20;58.20;;;;;;4954740;28;20425;-64
2021/08/17 11:12:03;;;;;;;2.05;1.10;;;24.20;58.20;;;;;;4954092;28;20501;-63
2021/08/17 11:14:30;;;;;;;1.65;0.98;;;24.20;58.80;;;;;;4954470;28;20806;-64
2021/08/17 11:17:03;;;;;;;1.77;1.20;;;24.20;58.70;;;;;;4954423;28;20504;-64
2021/08/17 11:19:32;;;;;;;1.90;1.20;;;24.20;58.00;;;;;;4954327;28;20877;-64
2021/08/17 11:21:59;;;;;;;1.73;1.10;;;24.20;58.00;;;;;;4953273;28;20433;-63
2021/08/17 11:24:27;;;;;;;1.83;1.05;;;24.20;58.10;;;;;;4954305;28;20386;-64
2021/08/17 11:27:30;;;;;;;3.33;1.27;;;24.20;58.00;;;;;;4954276;28;20462;-64
2021/08/17 11:30:02;;;;;;;3.00;1.10;;;24.20;58.00;;;;;;4933166;28;20437;-64
2021/08/17 11:32:38;;;;;;;3.55;1.20;;;24.20;58.00;;;;;;4952892;28;20390;-64
2021/08/17 11:35:09;;;;;;;3.40;1.27;;;24.20;58.10;;;;;;4951373;28;20504;-64
2021/08/17 11:37:37;;;;;;;3.28;1.30;;;24.20;58.10;;;;;;4951461;29;20901;-64
2021/08/17 11:40:07;;;;;;;2.45;1.10;;;24.30;58.30;;;;;;4952753;28;20429;-64
2021/08/17 11:42:35;;;;;;;1.90;1.10;;;24.20;58.20;;;;;;4952665;28;20425;-64
2021/08/17 11:45:03;;;;;;;2.30;1.20;;;24.30;58.30;;;;;;4952682;28;20404;-64
2021/08/17 11:47:30;;;;;;;2.17;1.00;;;24.30;58.40;;;;;;4952498;28;20410;-64
2021/08/17 11:49:58;;;;;;;2.10;1.10;;;24.30;58.50;;;;;;4952226;28;20489;-64
2021/08/17 11:52:27;;;;;;;2.23;1.17;;;24.30;58.50;;;;;;4952696;28;20417;-64
2021/08/17 11:55:16;;;;;;;2.40;1.10;;;24.30;58.40;;;;;;4951302;29;20402;-64
2021/08/17 11:57:53;;;;;;;2.05;1.00;;;24.30;58.50;;;;;;4950178;29;20402;-64
2021/08/17 12:00:27;;;;;;;2.22;1.10;;;24.30;58.60;;;;;;4952391;28;20421;-64
2021/08/17 12:02:57;;;;;;;1.50;0.90;;;24.30;58.40;;;;;;4950677;29;20405;-64
2021/08/17 12:05:29;;;;;;;1.58;0.90;;;24.30;58.40;;;;;;4952075;28;20394;-64
2021/08/17 12:07:56;;;;;;;1.50;1.00;;;24.30;58.50;;;;;;4951956;28;20473;-64
2021/08/17 12:10:22;;;;;;;2.70;1.10;;;24.30;58.50;;;;;;4952513;28;20405;-64
2021/08/17 12:13:02;;;;;;;1.95;1.17;;;24.30;58.40;;;;;;4952650;28;20394;-64
2021/08/17 12:15:31;;;;;;;1.85;1.10;;;24.30;58.40;;;;;;4951298;28;20398;-64
2021/08/17 12:18:20;;;;;;;2.20;1.10;;;24.40;58.40;;;;;;4949374;29;20838;-64
2021/08/17 12:20:48;;;;;;;1.70;1.00;;;24.30;58.40;;;;;;4950213;29;20433;-64
2021/08/17 12:23:20;;;;;;;2.95;1.27;;;24.40;58.30;;;;;;4951872;28;20390;-64
2021/08/17 12:25:47;;;;;;;2.22;1.13;;;24.40;58.30;;;;;;4951712;28;20398;-64
2021/08/17 12:28:24;;;;;;;2.05;1.20;;;24.40;58.40;;;;;;4952255;28;20480;-64
2021/08/17 12:31:15;;;;;;;2.55;1.30;;;24.50;58.50;;;;;;4952090;28;20556;-64
2021/08/17 12:33:44;;;;;;;3.05;1.20;;;24.50;58.50;;;;;;4949608;29;20483;-63
2021/08/17 12:36:10;;;;;;;2.05;1.17;;;24.40;58.50;;;;;;4951684;28;21100;-64
2021/08/17 12:38:39;;;;;;;2.88;1.23;;;24.40;58.00;;;;;;4952281;28;20402;-63
2021/08/17 12:41:04;;;;;;;2.05;1.02;;;24.50;58.30;;;;;;4951554;28;20565;-64
2021/08/17 12:43:37;;;;;;;2.30;1.30;;;24.40;58.40;;;;;;4950654;29;20497;-64
2021/08/17 12:46:15;;;;;;;2.50;1.23;;;24.40;58.10;;;;;;4950259;29;20909;-64
2021/08/17 12:48:47;;;;;;;2.80;1.20;;;24.40;58.00;;;;;;4949902;28;20456;-64
2021/08/17 12:51:25;;;;;;;2.90;1.23;;;24.50;58.30;;;;;;4951548;28;20378;-64